Mound, Minnesota
Current Conditions -  °F | °C
As of 11:17 AM on Saturday 20 Dec 2014 (Local Time) from KFCM Reporting Station
Haze Haze  
Wind Chill: 23°   Ceiling: 1600
Heat Index: 32°   Visibility: 5mi
Dew Point: 28°   Wind: 13mph
Humidity: 85%   Direction: 180°S
Pressure: 30.14"   Gusts: NA
Location:  44.93°N, 93.66°W
Report Text: KFCM 201717Z 18011KT 5SM BR SCT011 OVC016 00/M02 A3014 RMK AO2 T00001022
Loading
Personal Weather Stations






























Interactive Weather Map New forecast layout! Learn more

10-Day Weather Forecast

Advertisements
Track Severe Weather on mobile